sensor_id;sensor_type;location;lat;lon;timestamp;pressure;altitude;pressure_sealevel;temperature;humidity
10992;BME280;5549;47.028;15.514;2023-04-26T00:00:26;96190.56;;;9.70;52.07
10992;BME280;5549;47.028;15.514;2023-04-26T00:03:00;96196.38;;;9.73;51.68
10992;BME280;5549;47.028;15.514;2023-04-26T00:05:38;96186.31;;;9.78;52.26
10992;BME280;5549;47.028;15.514;2023-04-26T00:08:10;96193.13;;;9.60;51.69
10992;BME280;5549;47.028;15.514;2023-04-26T00:10:45;96198.13;;;9.63;51.88
10992;BME280;5549;47.028;15.514;2023-04-26T00:13:16;96197.50;;;9.50;52.70
10992;BME280;5549;47.028;15.514;2023-04-26T00:15:47;96191.41;;;9.40;52.37
10992;BME280;5549;47.028;15.514;2023-04-26T00:18:17;96191.66;;;9.37;52.46
10992;BME280;5549;47.028;15.514;2023-04-26T00:20:49;96192.78;;;9.44;52.21
10992;BME280;5549;47.028;15.514;2023-04-26T00:23:21;96194.78;;;9.30;52.96
10992;BME280;5549;47.028;15.514;2023-04-26T00:25:56;96201.97;;;9.59;52.56
10992;BME280;5549;47.028;15.514;2023-04-26T00:28:30;96196.84;;;9.57;52.18
10992;BME280;5549;47.028;15.514;2023-04-26T00:31:03;96192.28;;;9.50;52.90
10992;BME280;5549;47.028;15.514;2023-04-26T00:33:32;96189.94;;;9.56;52.22
10992;BME280;5549;47.028;15.514;2023-04-26T00:36:08;96193.56;;;9.65;52.28
10992;BME280;5549;47.028;15.514;2023-04-26T00:38:44;96196.38;;;9.43;52.49
10992;BME280;5549;47.028;15.514;2023-04-26T00:41:21;96193.56;;;9.35;53.08
10992;BME280;5549;47.028;15.514;2023-04-26T00:43:52;96202.13;;;9.37;53.12
10992;BME280;5549;47.028;15.514;2023-04-26T00:46:27;96193.41;;;9.57;52.54
10992;BME280;5549;47.028;15.514;2023-04-26T00:49:02;96191.91;;;9.64;52.00
10992;BME280;5549;47.028;15.514;2023-04-26T00:51:30;96191.09;;;9.63;51.86
10992;BME280;5549;47.028;15.514;2023-04-26T00:54:01;96183.47;;;9.60;51.82
10992;BME280;5549;47.028;15.514;2023-04-26T00:56:34;96194.00;;;9.70;51.53
10992;BME280;5549;47.028;15.514;2023-04-26T00:59:03;96184.19;;;9.62;51.84
10992;BME280;5549;47.028;15.514;2023-04-26T01:01:31;96189.47;;;9.72;51.91
10992;BME280;5549;47.028;15.514;2023-04-26T01:04:01;96179.16;;;9.50;52.05
10992;BME280;5549;47.028;15.514;2023-04-26T01:06:32;96180.03;;;9.60;51.88
10992;BME280;5549;47.028;15.514;2023-04-26T01:09:04;96191.78;;;9.65;51.26
10992;BME280;5549;47.028;15.514;2023-04-26T01:11:37;96191.13;;;9.43;52.26
10992;BME280;5549;47.028;15.514;2023-04-26T01:14:07;96188.06;;;9.38;51.81
10992;BME280;5549;47.028;15.514;2023-04-26T01:16:37;96195.53;;;9.42;51.18
10992;BME280;5549;47.028;15.514;2023-04-26T01:19:09;96201.88;;;9.40;50.95
10992;BME280;5549;47.028;15.514;2023-04-26T01:21:41;96200.41;;;9.47;51.15
10992;BME280;5549;47.028;15.514;2023-04-26T01:24:13;96200.31;;;9.58;50.21
10992;BME280;5549;47.028;15.514;2023-04-26T01:26:49;96199.97;;;9.42;50.96
10992;BME280;5549;47.028;15.514;2023-04-26T01:29:19;96202.63;;;9.51;50.85
10992;BME280;5549;47.028;15.514;2023-04-26T01:31:49;96200.00;;;9.51;50.45
10992;BME280;5549;47.028;15.514;2023-04-26T01:34:17;96209.78;;;9.49;50.63
10992;BME280;5549;47.028;15.514;2023-04-26T01:36:44;96206.69;;;9.35;50.94
10992;BME280;5549;47.028;15.514;2023-04-26T01:39:13;96202.50;;;9.53;51.18
10992;BME280;5549;47.028;15.514;2023-04-26T01:41:43;96205.84;;;9.64;50.15
10992;BME280;5549;47.028;15.514;2023-04-26T01:44:11;96199.03;;;9.52;50.93
10992;BME280;5549;47.028;15.514;2023-04-26T01:46:40;96202.66;;;9.30;50.63
10992;BME280;5549;47.028;15.514;2023-04-26T01:49:08;96215.28;;;9.46;50.37
10992;BME280;5549;47.028;15.514;2023-04-26T01:51:35;96221.63;;;9.44;50.51
10992;BME280;5549;47.028;15.514;2023-04-26T01:54:05;96219.69;;;9.46;50.30
10992;BME280;5549;47.028;15.514;2023-04-26T01:56:41;96229.88;;;9.70;49.87
10992;BME280;5549;47.028;15.514;2023-04-26T01:59:12;96226.88;;;9.74;50.19
10992;BME280;5549;47.028;15.514;2023-04-26T02:01:41;96232.34;;;9.61;50.30
10992;BME280;5549;47.028;15.514;2023-04-26T02:04:11;96226.59;;;9.47;50.63
10992;BME280;5549;47.028;15.514;2023-04-26T02:06:39;96233.06;;;9.43;50.48
10992;BME280;5549;47.028;15.514;2023-04-26T02:09:07;96227.31;;;9.28;50.17
10992;BME280;5549;47.028;15.514;2023-04-26T02:11:37;96229.34;;;9.45;49.94
10992;BME280;5549;47.028;15.514;2023-04-26T02:14:06;96236.22;;;9.67;49.96
10992;BME280;5549;47.028;15.514;2023-04-26T02:16:34;96230.03;;;9.68;49.97
10992;BME280;5549;47.028;15.514;2023-04-26T02:19:03;96229.28;;;9.56;50.15
10992;BME280;5549;47.028;15.514;2023-04-26T02:21:51;96235.78;;;9.62;50.26
10992;BME280;5549;47.028;15.514;2023-04-26T02:24:20;96231.47;;;9.51;49.41
10992;BME280;5549;47.028;15.514;2023-04-26T02:26:49;96242.91;;;9.50;49.21
10992;BME280;5549;47.028;15.514;2023-04-26T02:29:20;96234.22;;;9.50;48.93
10992;BME280;5549;47.028;15.514;2023-04-26T02:31:50;96233.63;;;9.46;49.18
10992;BME280;5549;47.028;15.514;2023-04-26T02:34:18;96229.94;;;9.49;48.92
10992;BME280;5549;47.028;15.514;2023-04-26T02:36:47;96229.78;;;9.50;48.89
10992;BME280;5549;47.028;15.514;2023-04-26T02:39:15;96230.38;;;9.54;48.94
10992;BME280;5549;47.028;15.514;2023-04-26T02:41:45;96225.66;;;9.48;49.67
10992;BME280;5549;47.028;15.514;2023-04-26T02:44:12;96223.09;;;9.37;49.80
10992;BME280;5549;47.028;15.514;2023-04-26T02:46:43;96218.31;;;9.42;50.30
10992;BME280;5549;47.028;15.514;2023-04-26T02:49:11;96220.22;;;9.40;50.12
10992;BME280;5549;47.028;15.514;2023-04-26T02:51:41;96219.97;;;9.43;49.83
10992;BME280;5549;47.028;15.514;2023-04-26T02:54:11;96221.63;;;9.44;49.82
10992;BME280;5549;47.028;15.514;2023-04-26T02:56:38;96223.03;;;9.48;49.48
10992;BME280;5549;47.028;15.514;2023-04-26T02:59:08;96220.00;;;9.52;49.12
10992;BME280;5549;47.028;15.514;2023-04-26T03:01:35;96226.47;;;9.48;52.18
10992;BME280;5549;47.028;15.514;2023-04-26T03:04:05;96227.25;;;9.39;52.27
10992;BME280;5549;47.028;15.514;2023-04-26T03:06:35;96224.44;;;9.31;51.89
10992;BME280;5549;47.028;15.514;2023-04-26T03:09:03;96234.34;;;9.27;52.42
10992;BME280;5549;47.028;15.514;2023-04-26T03:11:34;96228.41;;;9.25;52.86
10992;BME280;5549;47.028;15.514;2023-04-26T03:14:01;96228.53;;;9.24;52.58
10992;BME280;5549;47.028;15.514;2023-04-26T03:16:40;96238.44;;;9.20;53.64
10992;BME280;5549;47.028;15.514;2023-04-26T03:19:12;96239.91;;;9.13;54.57
10992;BME280;5549;47.028;15.514;2023-04-26T03:21:40;96242.78;;;9.10;54.31
10992;BME280;5549;47.028;15.514;2023-04-26T03:24:10;96234.25;;;9.08;54.69
10992;BME280;5549;47.028;15.514;2023-04-26T03:26:40;96238.66;;;9.08;54.03
10992;BME280;5549;47.028;15.514;2023-04-26T03:29:07;96231.88;;;9.05;54.91
10992;BME280;5549;47.028;15.514;2023-04-26T03:31:38;96243.50;;;8.91;56.56
10992;BME280;5549;47.028;15.514;2023-04-26T03:34:05;96240.94;;;8.80;57.60
10992;BME280;5549;47.028;15.514;2023-04-26T03:36:35;96241.56;;;8.73;58.04
10992;BME280;5549;47.028;15.514;2023-04-26T03:39:03;96253.94;;;8.59;58.56
10992;BME280;5549;47.028;15.514;2023-04-26T03:41:31;96256.34;;;8.51;58.88
10992;BME280;5549;47.028;15.514;2023-04-26T03:44:03;96255.19;;;8.44;57.18
10992;BME280;5549;47.028;15.514;2023-04-26T03:46:31;96255.53;;;8.51;55.84
10992;BME280;5549;47.028;15.514;2023-04-26T03:48:59;96266.56;;;8.54;56.12
10992;BME280;5549;47.028;15.514;2023-04-26T03:51:28;96265.66;;;8.44;56.86
10992;BME280;5549;47.028;15.514;2023-04-26T03:53:58;96267.06;;;8.48;56.59
10992;BME280;5549;47.028;15.514;2023-04-26T03:56:28;96276.94;;;8.45;56.63
10992;BME280;5549;47.028;15.514;2023-04-26T03:58:59;96287.16;;;8.48;56.68
10992;BME280;5549;47.028;15.514;2023-04-26T04:01:29;96285.88;;;8.31;58.01
10992;BME280;5549;47.028;15.514;2023-04-26T04:03:56;96296.22;;;8.44;57.97
10992;BME280;5549;47.028;15.514;2023-04-26T04:06:26;96298.00;;;8.43;58.11
10992;BME280;5549;47.028;15.514;2023-04-26T04:08:54;96303.94;;;8.45;58.55
10992;BME280;5549;47.028;15.514;2023-04-26T04:11:23;96306.56;;;8.45;58.61
10992;BME280;5549;47.028;15.514;2023-04-26T04:13:52;96312.50;;;8.47;58.38
10992;BME280;5549;47.028;15.514;2023-04-26T04:16:20;96301.78;;;8.50;58.52
10992;BME280;5549;47.028;15.514;2023-04-26T04:18:47;96305.38;;;8.49;59.37
10992;BME280;5549;47.028;15.514;2023-04-26T04:21:15;96310.00;;;8.46;59.38
10992;BME280;5549;47.028;15.514;2023-04-26T04:23:45;96309.06;;;8.47;58.98
10992;BME280;5549;47.028;15.514;2023-04-26T04:26:15;96305.50;;;8.36;58.46
10992;BME280;5549;47.028;15.514;2023-04-26T04:28:47;96311.34;;;8.40;58.60
10992;BME280;5549;47.028;15.514;2023-04-26T04:31:17;96320.97;;;8.40;58.56
10992;BME280;5549;47.028;15.514;2023-04-26T04:33:44;96325.59;;;8.36;58.46
10992;BME280;5549;47.028;15.514;2023-04-26T04:36:12;96325.38;;;8.39;59.04
10992;BME280;5549;47.028;15.514;2023-04-26T04:38:44;96324.88;;;8.45;59.76
10992;BME280;5549;47.028;15.514;2023-04-26T04:41:12;96335.00;;;8.39;59.63
10992;BME280;5549;47.028;15.514;2023-04-26T04:43:42;96335.72;;;8.41;59.06
10992;BME280;5549;47.028;15.514;2023-04-26T04:46:13;96337.25;;;8.21;59.48
10992;BME280;5549;47.028;15.514;2023-04-26T04:48:41;96340.81;;;8.20;60.39
10992;BME280;5549;47.028;15.514;2023-04-26T04:51:10;96329.41;;;7.98;60.09
10992;BME280;5549;47.028;15.514;2023-04-26T04:53:40;96343.56;;;8.18;60.15
10992;BME280;5549;47.028;15.514;2023-04-26T04:56:07;96335.44;;;8.32;59.31
10992;BME280;5549;47.028;15.514;2023-04-26T04:58:35;96337.75;;;8.37;60.59
10992;BME280;5549;47.028;15.514;2023-04-26T05:01:05;96343.22;;;8.34;61.84
10992;BME280;5549;47.028;15.514;2023-04-26T05:03:34;96346.75;;;8.55;60.62
10992;BME280;5549;47.028;15.514;2023-04-26T05:06:01;96348.16;;;8.59;60.01
10992;BME280;5549;47.028;15.514;2023-04-26T05:08:32;96346.28;;;8.73;59.14
10992;BME280;5549;47.028;15.514;2023-04-26T05:11:00;96353.41;;;8.59;59.73
10992;BME280;5549;47.028;15.514;2023-04-26T05:13:28;96353.19;;;8.40;61.69
10992;BME280;5549;47.028;15.514;2023-04-26T05:15:55;96365.09;;;8.33;64.17
10992;BME280;5549;47.028;15.514;2023-04-26T05:18:23;96368.16;;;8.16;64.86
10992;BME280;5549;47.028;15.514;2023-04-26T05:20:54;96362.25;;;8.36;64.87
10992;BME280;5549;47.028;15.514;2023-04-26T05:23:23;96374.34;;;8.59;62.21
10992;BME280;5549;47.028;15.514;2023-04-26T05:25:51;96376.03;;;8.49;63.05
10992;BME280;5549;47.028;15.514;2023-04-26T05:28:18;96380.03;;;8.31;62.96
10992;BME280;5549;47.028;15.514;2023-04-26T05:30:48;96379.59;;;8.37;61.50
10992;BME280;5549;47.028;15.514;2023-04-26T05:33:16;96374.59;;;8.45;61.37
10992;BME280;5549;47.028;15.514;2023-04-26T05:35:46;96374.47;;;8.24;64.44
10992;BME280;5549;47.028;15.514;2023-04-26T05:38:15;96372.44;;;8.50;63.98
10992;BME280;5549;47.028;15.514;2023-04-26T05:40:42;96383.63;;;8.75;63.24
10992;BME280;5549;47.028;15.514;2023-04-26T05:43:10;96381.81;;;8.86;63.06
10992;BME280;5549;47.028;15.514;2023-04-26T05:45:40;96385.34;;;9.08;62.17
10992;BME280;5549;47.028;15.514;2023-04-26T05:48:16;96390.25;;;9.01;60.19
10992;BME280;5549;47.028;15.514;2023-04-26T05:50:43;96390.56;;;9.40;62.04
10992;BME280;5549;47.028;15.514;2023-04-26T05:53:11;96397.22;;;9.44;60.63
10992;BME280;5549;47.028;15.514;2023-04-26T05:55:42;96408.38;;;9.57;61.31
10992;BME280;5549;47.028;15.514;2023-04-26T05:58:10;96416.78;;;9.40;60.56
10992;BME280;5549;47.028;15.514;2023-04-26T06:00:38;96415.72;;;9.63;58.71
10992;BME280;5549;47.028;15.514;2023-04-26T06:03:08;96413.59;;;9.57;59.26
10992;BME280;5549;47.028;15.514;2023-04-26T06:05:36;96416.03;;;9.49;59.85
10992;BME280;5549;47.028;15.514;2023-04-26T06:08:05;96413.09;;;9.63;60.51
10992;BME280;5549;47.028;15.514;2023-04-26T06:10:34;96407.22;;;9.91;60.87
10992;BME280;5549;47.028;15.514;2023-04-26T06:13:03;96408.47;;;10.18;59.95
10992;BME280;5549;47.028;15.514;2023-04-26T06:15:31;96404.78;;;10.41;58.27
10992;BME280;5549;47.028;15.514;2023-04-26T06:18:02;96392.25;;;10.24;58.28
10992;BME280;5549;47.028;15.514;2023-04-26T06:20:30;96394.56;;;10.88;60.19
10992;BME280;5549;47.028;15.514;2023-04-26T06:22:58;96394.97;;;10.83;58.34
10992;BME280;5549;47.028;15.514;2023-04-26T06:25:26;96398.34;;;11.05;58.53
10992;BME280;5549;47.028;15.514;2023-04-26T06:27:56;96405.63;;;10.82;56.51
10992;BME280;5549;47.028;15.514;2023-04-26T06:30:25;96402.03;;;10.83;57.62
10992;BME280;5549;47.028;15.514;2023-04-26T06:32:55;96400.84;;;10.56;57.24
10992;BME280;5549;47.028;15.514;2023-04-26T06:35:25;96410.38;;;10.57;57.05
10992;BME280;5549;47.028;15.514;2023-04-26T06:37:52;96409.75;;;10.75;58.04
10992;BME280;5549;47.028;15.514;2023-04-26T06:40:22;96403.59;;;10.95;57.30
10992;BME280;5549;47.028;15.514;2023-04-26T06:42:52;96405.56;;;11.41;56.83
10992;BME280;5549;47.028;15.514;2023-04-26T06:45:23;96410.69;;;11.72;54.70
10992;BME280;5549;47.028;15.514;2023-04-26T06:47:51;96398.31;;;12.30;55.58
10992;BME280;5549;47.028;15.514;2023-04-26T06:50:19;96395.78;;;12.38;54.65
10992;BME280;5549;47.028;15.514;2023-04-26T06:52:49;96407.22;;;12.57;53.72
10992;BME280;5549;47.028;15.514;2023-04-26T06:55:19;96401.84;;;12.48;52.44
10992;BME280;5549;47.028;15.514;2023-04-26T06:57:49;96410.56;;;12.59;53.54
10992;BME280;5549;47.028;15.514;2023-04-26T07:00:17;96401.88;;;12.76;52.79
10992;BME280;5549;47.028;15.514;2023-04-26T07:02:46;96411.34;;;12.12;52.35
10992;BME280;5549;47.028;15.514;2023-04-26T07:05:15;96402.16;;;12.45;52.77
10992;BME280;5549;47.028;15.514;2023-04-26T07:08:07;96410.25;;;12.25;54.56
10992;BME280;5549;47.028;15.514;2023-04-26T07:10:34;96404.19;;;12.51;50.65
10992;BME280;5549;47.028;15.514;2023-04-26T07:13:02;96404.59;;;12.84;51.57
10992;BME280;5549;47.028;15.514;2023-04-26T07:15:32;96406.38;;;12.93;48.96
10992;BME280;5549;47.028;15.514;2023-04-26T07:18:02;96409.19;;;13.09;50.66
10992;BME280;5549;47.028;15.514;2023-04-26T07:20:30;96418.38;;;12.78;49.31
10992;BME280;5549;47.028;15.514;2023-04-26T07:22:58;96401.81;;;13.13;50.68
10992;BME280;5549;47.028;15.514;2023-04-26T07:25:27;96401.47;;;13.26;50.27
10992;BME280;5549;47.028;15.514;2023-04-26T07:27:55;96400.13;;;13.57;48.40
10992;BME280;5549;47.028;15.514;2023-04-26T07:30:25;96398.84;;;13.79;48.09
10992;BME280;5549;47.028;15.514;2023-04-26T07:32:53;96404.06;;;13.89;48.00
10992;BME280;5549;47.028;15.514;2023-04-26T07:35:24;96406.00;;;13.87;49.87
10992;BME280;5549;47.028;15.514;2023-04-26T07:37:53;96407.66;;;14.05;46.81
10992;BME280;5549;47.028;15.514;2023-04-26T07:40:21;96408.41;;;13.98;47.65
10992;BME280;5549;47.028;15.514;2023-04-26T07:42:52;96407.66;;;14.31;47.40
10992;BME280;5549;47.028;15.514;2023-04-26T07:45:20;96414.66;;;14.15;46.77
10992;BME280;5549;47.028;15.514;2023-04-26T07:47:50;96411.03;;;14.41;46.23
10992;BME280;5549;47.028;15.514;2023-04-26T07:50:17;96415.47;;;14.41;45.57
10992;BME280;5549;47.028;15.514;2023-04-26T07:52:48;96403.31;;;14.48;45.12
10992;BME280;5549;47.028;15.514;2023-04-26T07:55:16;96415.84;;;14.20;44.96
10992;BME280;5549;47.028;15.514;2023-04-26T07:57:46;96418.94;;;14.67;45.65
10992;BME280;5549;47.028;15.514;2023-04-26T08:00:15;96421.91;;;14.64;45.92
10992;BME280;5549;47.028;15.514;2023-04-26T08:02:46;96425.19;;;14.92;45.97
10992;BME280;5549;47.028;15.514;2023-04-26T08:05:14;96429.44;;;14.85;44.46
10992;BME280;5549;47.028;15.514;2023-04-26T08:07:42;96428.81;;;14.91;44.22
10992;BME280;5549;47.028;15.514;2023-04-26T08:10:13;96422.56;;;15.00;43.97
10992;BME280;5549;47.028;15.514;2023-04-26T08:12:44;96429.88;;;15.06;43.86
10992;BME280;5549;47.028;15.514;2023-04-26T08:15:14;96430.16;;;14.95;43.74
10992;BME280;5549;47.028;15.514;2023-04-26T08:17:41;96424.59;;;15.15;42.65
10992;BME280;5549;47.028;15.514;2023-04-26T08:20:10;96425.28;;;15.25;43.67
10992;BME280;5549;47.028;15.514;2023-04-26T08:22:40;96426.25;;;15.16;41.81
10992;BME280;5549;47.028;15.514;2023-04-26T08:25:10;96424.88;;;14.95;42.85
10992;BME280;5549;47.028;15.514;2023-04-26T08:27:39;96419.91;;;14.92;43.38
10992;BME280;5549;47.028;15.514;2023-04-26T08:30:10;96416.31;;;15.09;42.63
10992;BME280;5549;47.028;15.514;2023-04-26T08:32:40;96427.25;;;15.15;43.35
10992;BME280;5549;47.028;15.514;2023-04-26T08:35:09;96429.91;;;15.23;43.11
10992;BME280;5549;47.028;15.514;2023-04-26T08:37:37;96423.88;;;14.96;42.80
10992;BME280;5549;47.028;15.514;2023-04-26T08:40:06;96427.72;;;15.10;42.49
10992;BME280;5549;47.028;15.514;2023-04-26T08:42:40;96432.94;;;15.36;44.29
10992;BME280;5549;47.028;15.514;2023-04-26T08:45:11;96439.25;;;15.51;43.93
10992;BME280;5549;47.028;15.514;2023-04-26T08:47:43;96433.72;;;15.62;40.65
10992;BME280;5549;47.028;15.514;2023-04-26T08:50:15;96433.41;;;15.82;39.31
10992;BME280;5549;47.028;15.514;2023-04-26T08:52:48;96432.09;;;16.10;41.58
10992;BME280;5549;47.028;15.514;2023-04-26T08:55:19;96431.25;;;16.18;40.38
10992;BME280;5549;47.028;15.514;2023-04-26T08:57:49;96424.78;;;16.12;39.55
10992;BME280;5549;47.028;15.514;2023-04-26T09:00:18;96437.53;;;16.00;40.06
10992;BME280;5549;47.028;15.514;2023-04-26T09:02:50;96436.22;;;15.88;40.58
10992;BME280;5549;47.028;15.514;2023-04-26T09:05:19;96437.69;;;15.75;42.74
10992;BME280;5549;47.028;15.514;2023-04-26T09:07:53;96443.38;;;15.54;40.46
10992;BME280;5549;47.028;15.514;2023-04-26T09:10:25;96440.75;;;15.03;39.80
10992;BME280;5549;47.028;15.514;2023-04-26T09:12:54;96445.44;;;15.18;40.48
10992;BME280;5549;47.028;15.514;2023-04-26T09:15:24;96448.44;;;15.23;39.95
10992;BME280;5549;47.028;15.514;2023-04-26T09:17:52;96445.50;;;15.34;38.96
10992;BME280;5549;47.028;15.514;2023-04-26T09:20:23;96444.97;;;15.64;41.64
10992;BME280;5549;47.028;15.514;2023-04-26T09:22:53;96443.91;;;15.07;38.19
10992;BME280;5549;47.028;15.514;2023-04-26T09:25:28;96440.66;;;15.71;43.39
10992;BME280;5549;47.028;15.514;2023-04-26T09:28:00;96444.66;;;16.08;44.22
10992;BME280;5549;47.028;15.514;2023-04-26T09:30:37;96446.00;;;16.04;40.17
10992;BME280;5549;47.028;15.514;2023-04-26T09:33:07;96440.66;;;16.36;41.74
10992;BME280;5549;47.028;15.514;2023-04-26T09:35:37;96439.81;;;16.52;39.63
10992;BME280;5549;47.028;15.514;2023-04-26T09:38:07;96440.66;;;16.45;40.19
10992;BME280;5549;47.028;15.514;2023-04-26T09:40:37;96434.34;;;16.70;44.45
10992;BME280;5549;47.028;15.514;2023-04-26T09:43:10;96429.81;;;16.87;39.08
10992;BME280;5549;47.028;15.514;2023-04-26T09:45:46;96418.28;;;17.11;40.69
10992;BME280;5549;47.028;15.514;2023-04-26T09:48:19;96420.41;;;17.15;38.84
10992;BME280;5549;47.028;15.514;2023-04-26T09:50:52;96422.72;;;17.18;40.19
10992;BME280;5549;47.028;15.514;2023-04-26T09:53:31;96416.00;;;17.39;40.18
10992;BME280;5549;47.028;15.514;2023-04-26T09:56:09;96414.78;;;17.10;38.34
10992;BME280;5549;47.028;15.514;2023-04-26T09:58:55;96414.19;;;17.39;42.54
10992;BME280;5549;47.028;15.514;2023-04-26T10:01:25;96414.03;;;17.63;41.53
10992;BME280;5549;47.028;15.514;2023-04-26T10:03:58;96409.16;;;17.75;36.00
10992;BME280;5549;47.028;15.514;2023-04-26T10:06:29;96414.69;;;17.66;35.76
10992;BME280;5549;47.028;15.514;2023-04-26T10:09:01;96412.38;;;16.92;37.46
10992;BME280;5549;47.028;15.514;2023-04-26T10:11:32;96411.88;;;15.85;39.10
10992;BME280;5549;47.028;15.514;2023-04-26T10:14:04;96410.22;;;16.08;40.75
10992;BME280;5549;47.028;15.514;2023-04-26T10:16:32;96409.56;;;16.06;43.79
10992;BME280;5549;47.028;15.514;2023-04-26T10:19:02;96409.88;;;16.19;40.77
10992;BME280;5549;47.028;15.514;2023-04-26T10:21:33;96410.88;;;15.61;41.43
10992;BME280;5549;47.028;15.514;2023-04-26T10:24:05;96405.59;;;15.61;41.80
10992;BME280;5549;47.028;15.514;2023-04-26T10:26:49;96402.25;;;15.59;40.62
10992;BME280;5549;47.028;15.514;2023-04-26T10:29:20;96410.44;;;15.40;38.19
10992;BME280;5549;47.028;15.514;2023-04-26T10:32:08;96407.47;;;15.35;38.64
10992;BME280;5549;47.028;15.514;2023-04-26T10:34:43;96398.31;;;16.04;39.98
10992;BME280;5549;47.028;15.514;2023-04-26T10:37:12;96385.69;;;16.22;37.98
10992;BME280;5549;47.028;15.514;2023-04-26T10:39:41;96390.66;;;16.33;36.65
10992;BME280;5549;47.028;15.514;2023-04-26T10:42:23;96398.59;;;16.33;37.35
10992;BME280;5549;47.028;15.514;2023-04-26T10:44:54;96390.47;;;16.43;38.37
10992;BME280;5549;47.028;15.514;2023-04-26T10:47:30;96389.91;;;16.72;38.69
10992;BME280;5549;47.028;15.514;2023-04-26T10:50:06;96396.94;;;15.59;40.29
10992;BME280;5549;47.028;15.514;2023-04-26T10:52:37;96402.75;;;15.04;41.74
10992;BME280;5549;47.028;15.514;2023-04-26T10:55:05;96386.59;;;15.24;41.79
10992;BME280;5549;47.028;15.514;2023-04-26T10:57:48;96384.75;;;15.83;41.98
10992;BME280;5549;47.028;15.514;2023-04-26T11:00:31;96399.13;;;15.96;42.33
10992;BME280;5549;47.028;15.514;2023-04-26T11:03:09;96393.03;;;15.96;41.92
10992;BME280;5549;47.028;15.514;2023-04-26T11:05:56;96392.69;;;15.99;37.92
10992;BME280;5549;47.028;15.514;2023-04-26T11:08:27;96390.84;;;16.24;39.63
10992;BME280;5549;47.028;15.514;2023-04-26T11:11:05;96383.72;;;16.16;41.32
10992;BME280;5549;47.028;15.514;2023-04-26T11:13:36;96386.72;;;16.05;37.34
10992;BME280;5549;47.028;15.514;2023-04-26T11:16:07;96379.31;;;16.72;41.01
10992;BME280;5549;47.028;15.514;2023-04-26T11:18:37;96367.41;;;16.68;39.15
10992;BME280;5549;47.028;15.514;2023-04-26T11:21:05;96361.94;;;17.00;36.41
10992;BME280;5549;47.028;15.514;2023-04-26T11:23:34;96362.44;;;17.35;35.71
10992;BME280;5549;47.028;15.514;2023-04-26T11:26:05;96358.91;;;17.12;32.14
10992;BME280;5549;47.028;15.514;2023-04-26T11:28:36;96360.47;;;17.29;30.45
10992;BME280;5549;47.028;15.514;2023-04-26T11:31:06;96355.78;;;17.08;32.44
10992;BME280;5549;47.028;15.514;2023-04-26T11:33:34;96357.06;;;17.43;33.11
10992;BME280;5549;47.028;15.514;2023-04-26T11:36:02;96357.78;;;17.37;30.83
10992;BME280;5549;47.028;15.514;2023-04-26T11:38:30;96360.09;;;17.32;32.93
10992;BME280;5549;47.028;15.514;2023-04-26T11:41:02;96357.41;;;17.09;32.19
10992;BME280;5549;47.028;15.514;2023-04-26T11:43:36;96362.47;;;17.27;32.23
10992;BME280;5549;47.028;15.514;2023-04-26T11:46:07;96368.59;;;17.27;31.52
10992;BME280;5549;47.028;15.514;2023-04-26T11:48:38;96365.41;;;17.32;31.79
10992;BME280;5549;47.028;15.514;2023-04-26T11:51:07;96361.94;;;17.31;35.35
10992;BME280;5549;47.028;15.514;2023-04-26T11:53:35;96357.13;;;17.58;32.02
10992;BME280;5549;47.028;15.514;2023-04-26T11:56:12;96358.78;;;17.36;30.68
10992;BME280;5549;47.028;15.514;2023-04-26T11:58:45;96350.13;;;17.42;32.44
10992;BME280;5549;47.028;15.514;2023-04-26T12:01:23;96351.19;;;17.25;30.81
10992;BME280;5549;47.028;15.514;2023-04-26T12:03:56;96346.72;;;17.79;31.09
10992;BME280;5549;47.028;15.514;2023-04-26T12:06:29;96345.50;;;18.05;31.39
10992;BME280;5549;47.028;15.514;2023-04-26T12:09:01;96346.09;;;18.44;33.68
10992;BME280;5549;47.028;15.514;2023-04-26T12:11:31;96349.59;;;18.74;30.29
10992;BME280;5549;47.028;15.514;2023-04-26T12:13:58;96336.13;;;18.61;29.06
10992;BME280;5549;47.028;15.514;2023-04-26T12:16:28;96345.59;;;18.11;29.55
10992;BME280;5549;47.028;15.514;2023-04-26T12:18:56;96341.94;;;18.27;28.47
10992;BME280;5549;47.028;15.514;2023-04-26T12:21:25;96345.22;;;18.14;26.32
10992;BME280;5549;47.028;15.514;2023-04-26T12:23:55;96331.38;;;17.67;29.29
10992;BME280;5549;47.028;15.514;2023-04-26T12:26:42;96340.75;;;17.77;27.96
10992;BME280;5549;47.028;15.514;2023-04-26T12:29:12;96337.13;;;17.93;28.12
10992;BME280;5549;47.028;15.514;2023-04-26T12:31:42;96334.25;;;18.17;31.31
10992;BME280;5549;47.028;15.514;2023-04-26T12:34:09;96335.13;;;17.95;28.82
10992;BME280;5549;47.028;15.514;2023-04-26T12:36:40;96333.03;;;17.68;28.72
10992;BME280;5549;47.028;15.514;2023-04-26T12:39:12;96332.41;;;18.33;29.87
10992;BME280;5549;47.028;15.514;2023-04-26T12:41:44;96334.75;;;17.98;29.23
10992;BME280;5549;47.028;15.514;2023-04-26T12:44:12;96333.09;;;17.97;27.66
10992;BME280;5549;47.028;15.514;2023-04-26T12:46:41;96326.34;;;17.72;28.05
10992;BME280;5549;47.028;15.514;2023-04-26T12:49:09;96336.97;;;17.72;29.78
10992;BME280;5549;47.028;15.514;2023-04-26T12:51:36;96336.72;;;17.81;28.49
10992;BME280;5549;47.028;15.514;2023-04-26T12:54:04;96335.84;;;17.89;28.48
10992;BME280;5549;47.028;15.514;2023-04-26T12:56:34;96336.72;;;17.81;27.65
10992;BME280;5549;47.028;15.514;2023-04-26T12:59:05;96334.78;;;17.75;29.72
10992;BME280;5549;47.028;15.514;2023-04-26T13:01:33;96338.09;;;17.54;27.34
10992;BME280;5549;47.028;15.514;2023-04-26T13:04:05;96334.44;;;17.55;28.20
10992;BME280;5549;47.028;15.514;2023-04-26T13:06:33;96332.69;;;17.71;30.28
10992;BME280;5549;47.028;15.514;2023-04-26T13:09:01;96328.69;;;17.89;29.29
10992;BME280;5549;47.028;15.514;2023-04-26T13:11:31;96326.56;;;17.85;28.49
10992;BME280;5549;47.028;15.514;2023-04-26T13:14:01;96325.97;;;17.98;27.75
10992;BME280;5549;47.028;15.514;2023-04-26T13:16:29;96330.38;;;18.05;27.58
10992;BME280;5549;47.028;15.514;2023-04-26T13:18:56;96321.69;;;18.26;26.76
10992;BME280;5549;47.028;15.514;2023-04-26T13:21:26;96326.44;;;18.16;28.37